createdAt,value
2023-04-09T00:00:24.109Z,32.90
2023-04-09T00:01:07.432Z,30.42
2023-04-09T00:01:49.539Z,31.17
2023-04-09T00:02:31.626Z,31.60
2023-04-09T00:03:13.628Z,30.48
2023-04-09T00:03:55.591Z,29.65
2023-04-09T00:04:37.481Z,32.50
2023-04-09T00:05:19.507Z,31.23
2023-04-09T00:06:01.442Z,33.60
2023-04-09T00:06:43.215Z,32.10
2023-04-09T00:07:25.026Z,31.05
2023-04-09T00:08:07.411Z,31.08
2023-04-09T00:08:49.399Z,30.13
2023-04-09T00:09:32.051Z,28.75
2023-04-09T00:10:13.926Z,29.58
2023-04-09T00:10:57.363Z,31.58
2023-04-09T00:11:39.240Z,33.42
2023-04-09T00:12:21.151Z,32.88
2023-04-09T00:13:03.224Z,30.80
2023-04-09T00:13:45.067Z,29.95
2023-04-09T00:14:28.968Z,29.83
2023-04-09T00:15:15.048Z,31.73
2023-04-09T00:16:02.702Z,32.20
2023-04-09T00:16:44.785Z,28.83
2023-04-09T00:17:26.700Z,28.48
2023-04-09T00:18:08.605Z,31.88
2023-04-09T00:18:50.892Z,29.77
2023-04-09T00:19:33.298Z,32.20
2023-04-09T00:20:15.121Z,32.13
2023-04-09T00:20:58.949Z,30.00
2023-04-09T00:21:41.086Z,30.75
2023-04-09T00:22:25.401Z,29.90
2023-04-09T00:23:07.243Z,31.45
2023-04-09T00:23:49.235Z,30.77
2023-04-09T00:24:31.312Z,29.92
2023-04-09T00:25:13.247Z,30.15
2023-04-09T00:25:55.250Z,31.77
2023-04-09T00:26:37.105Z,31.08
2023-04-09T00:27:19.260Z,28.63
2023-04-09T00:28:01.202Z,30.98
2023-04-09T00:28:43.303Z,31.88
2023-04-09T00:29:27.253Z,29.08
2023-04-09T00:30:09.855Z,28.95
2023-04-09T00:30:51.815Z,28.17
2023-04-09T00:31:33.860Z,29.50
2023-04-09T00:32:15.744Z,30.33
2023-04-09T00:33:00.320Z,30.88
2023-04-09T00:33:44.424Z,32.25
2023-04-09T00:34:26.354Z,33.55
2023-04-09T00:35:09.339Z,30.98
2023-04-09T00:35:51.508Z,31.17
2023-04-09T00:36:33.364Z,31.00
2023-04-09T00:37:15.552Z,30.75
2023-04-09T00:37:57.379Z,31.70
2023-04-09T00:38:39.407Z,34.30
2023-04-09T00:39:21.337Z,30.40
2023-04-09T00:40:03.502Z,31.75
2023-04-09T00:40:54.406Z,30.60
2023-04-09T00:41:36.324Z,30.50
2023-04-09T00:42:18.327Z,32.40
2023-04-09T00:43:01.266Z,31.67
2023-04-09T00:43:43.272Z,32.00
2023-04-09T00:44:25.833Z,32.30
2023-04-09T00:45:08.290Z,31.25
2023-04-09T00:45:50.474Z,31.27
2023-04-09T00:46:32.642Z,31.10
2023-04-09T00:47:14.729Z,30.42
2023-04-09T00:47:56.786Z,30.38
2023-04-09T00:48:39.396Z,32.08
2023-04-09T00:49:22.388Z,31.42
2023-04-09T00:50:04.439Z,31.75
2023-04-09T00:50:46.401Z,30.00
2023-04-09T00:51:28.744Z,29.80
2023-04-09T00:52:11.266Z,29.77
2023-04-09T00:52:55.466Z,29.67
2023-04-09T00:53:37.386Z,29.42
2023-04-09T00:54:19.551Z,30.77
2023-04-09T00:55:03.927Z,29.77
2023-04-09T00:55:46.308Z,31.10
2023-04-09T00:56:29.935Z,30.15
2023-04-09T00:57:12.414Z,30.35
2023-04-09T00:57:54.449Z,30.67
2023-04-09T00:58:36.858Z,30.88
2023-04-09T00:59:19.930Z,29.75
2023-04-09T01:00:04.732Z,30.20
2023-04-09T01:00:46.847Z,30.15
2023-04-09T01:01:29.105Z,29.65
2023-04-09T01:02:11.256Z,31.80
2023-04-09T01:02:53.972Z,31.83
2023-04-09T01:03:36.589Z,35.40
2023-04-09T01:04:19.432Z,30.75
2023-04-09T01:05:01.436Z,29.50
2023-04-09T01:06:09.513Z,29.73
2023-04-09T01:06:55.959Z,31.40
2023-04-09T01:07:54.957Z,31.05
2023-04-09T01:08:49.148Z,28.90
2023-04-09T01:09:39.298Z,28.75
2023-04-09T01:10:41.877Z,30.13
2023-04-09T01:11:43.690Z,30.33
2023-04-09T01:12:38.579Z,32.15
2023-04-09T01:13:30.820Z,28.60
2023-04-09T01:14:24.279Z,29.48
2023-04-09T01:15:11.369Z,29.35
2023-04-09T01:15:56.875Z,30.58
2023-04-09T01:16:44.713Z,30.58
2023-04-09T01:17:36.120Z,29.42
2023-04-09T01:18:24.627Z,31.00
2023-04-09T01:19:39.520Z,32.55
2023-04-09T01:20:41.431Z,29.70
2023-04-09T01:21:27.541Z,32.20
2023-04-09T01:22:34.831Z,30.27
2023-04-09T01:23:19.778Z,30.60
2023-04-09T01:24:36.205Z,30.15
2023-04-09T01:25:25.745Z,31.13
2023-04-09T01:26:16.922Z,31.52
2023-04-09T01:27:09.020Z,31.45
2023-04-09T01:28:04.740Z,31.30
2023-04-09T01:28:50.719Z,34.95
2023-04-09T01:29:35.686Z,30.33
2023-04-09T01:30:18.866Z,29.58
2023-04-09T01:31:20.732Z,30.92
2023-04-09T01:32:04.917Z,30.55
2023-04-09T01:32:47.160Z,30.23
2023-04-09T01:33:31.682Z,30.13
2023-04-09T01:34:14.987Z,28.92
2023-04-09T01:34:57.179Z,28.45
2023-04-09T01:35:41.572Z,31.58
2023-04-09T01:36:26.526Z,28.98
2023-04-09T01:37:09.650Z,29.23
2023-04-09T01:37:53.218Z,32.92
2023-04-09T01:38:41.295Z,31.92
2023-04-09T01:39:23.682Z,31.13
2023-04-09T01:40:07.062Z,29.48
2023-04-09T01:40:50.083Z,30.52
2023-04-09T01:41:34.433Z,30.83
2023-04-09T01:42:17.781Z,31.35
2023-04-09T01:43:01.355Z,30.88
2023-04-09T01:43:43.922Z,28.85
2023-04-09T01:44:27.635Z,30.75
2023-04-09T01:45:11.779Z,28.00
2023-04-09T01:45:55.152Z,30.75
2023-04-09T01:46:39.727Z,29.95
2023-04-09T01:47:24.453Z,30.30
2023-04-09T01:48:06.678Z,29.45
2023-04-09T01:48:49.899Z,27.50
2023-04-09T01:49:32.669Z,31.05
2023-04-09T01:50:14.982Z,30.10
2023-04-09T01:50:58.060Z,29.48
2023-04-09T01:51:40.251Z,31.13
2023-04-09T01:52:22.227Z,30.38
2023-04-09T01:53:04.301Z,30.48
2023-04-09T01:53:46.554Z,30.40
2023-04-09T01:54:30.673Z,31.50
2023-04-09T01:55:14.784Z,28.70
2023-04-09T01:55:56.841Z,27.15
2023-04-09T01:56:47.177Z,29.40
2023-04-09T01:57:29.140Z,30.80
2023-04-09T01:58:11.668Z,30.45
2023-04-09T01:58:53.924Z,32.45
2023-04-09T01:59:35.966Z,29.65
2023-04-09T02:00:17.800Z,27.75
2023-04-09T02:01:12.160Z,29.75
2023-04-09T02:02:01.428Z,28.90
2023-04-09T02:03:22.843Z,27.30
2023-04-09T02:04:16.617Z,27.55
2023-04-09T02:05:01.855Z,29.48
2023-04-09T02:05:54.506Z,29.27
2023-04-09T02:06:59.650Z,28.50
2023-04-09T02:07:46.816Z,28.30
2023-04-09T02:08:28.913Z,28.90
2023-04-09T02:09:12.319Z,29.75
2023-04-09T02:09:55.619Z,29.23
2023-04-09T02:10:39.611Z,28.85
2023-04-09T02:11:25.667Z,31.55
2023-04-09T02:12:12.598Z,31.02
2023-04-09T02:12:55.626Z,28.83
2023-04-09T02:13:40.675Z,28.40
2023-04-09T02:14:23.951Z,29.02
2023-04-09T02:15:07.625Z,30.30
2023-04-09T02:15:50.933Z,28.42
2023-04-09T02:16:34.073Z,28.77
2023-04-09T02:17:15.903Z,28.63
2023-04-09T02:17:57.846Z,29.13
2023-04-09T02:18:39.803Z,31.38
2023-04-09T02:19:23.911Z,27.83
2023-04-09T02:20:09.117Z,27.38
2023-04-09T02:20:52.096Z,28.25
2023-04-09T02:21:34.310Z,29.60
2023-04-09T02:22:17.190Z,28.05
2023-04-09T02:22:59.231Z,25.73
2023-04-09T02:23:41.448Z,28.40
2023-04-09T02:24:23.298Z,29.55
2023-04-09T02:25:05.948Z,27.42
2023-04-09T02:25:50.610Z,30.20
2023-04-09T02:26:32.409Z,28.77
2023-04-09T02:27:14.413Z,28.13
2023-04-09T02:27:56.322Z,30.17
2023-04-09T02:28:38.381Z,28.77
2023-04-09T02:29:20.282Z,27.90
2023-04-09T02:30:02.249Z,26.95
2023-04-09T02:30:44.284Z,26.87
2023-04-09T02:31:26.395Z,26.83
2023-04-09T02:32:08.836Z,27.38
2023-04-09T02:32:50.905Z,24.73
2023-04-09T02:33:32.902Z,26.85
2023-04-09T02:34:14.744Z,27.30
2023-04-09T02:34:56.540Z,27.30
2023-04-09T02:35:38.419Z,28.70
2023-04-09T02:36:20.231Z,27.95
2023-04-09T02:37:02.018Z,30.48
2023-04-09T02:37:43.893Z,29.83
2023-04-09T02:38:25.955Z,26.75
2023-04-09T02:39:07.839Z,27.80
2023-04-09T02:39:49.596Z,27.58
2023-04-09T02:40:31.401Z,29.58
2023-04-09T02:41:13.383Z,33.05
2023-04-09T02:41:56.227Z,28.70
2023-04-09T02:42:38.428Z,27.88
2023-04-09T02:43:20.389Z,27.17
2023-04-09T02:44:02.119Z,26.48
2023-04-09T02:44:44.440Z,26.98
2023-04-09T02:45:26.390Z,28.48
2023-04-09T02:46:08.918Z,26.95
2023-04-09T02:46:52.178Z,27.77
2023-04-09T02:47:34.058Z,27.70
2023-04-09T02:48:15.937Z,29.70
2023-04-09T02:48:57.890Z,28.38
2023-04-09T02:49:39.836Z,28.25
2023-04-09T02:50:23.775Z,30.83
2023-04-09T02:51:06.829Z,29.38
2023-04-09T02:51:49.015Z,28.90
2023-04-09T02:52:30.868Z,30.40
2023-04-09T02:53:14.983Z,28.50
2023-04-09T02:53:59.076Z,28.02
2023-04-09T02:54:40.987Z,28.70
2023-04-09T02:55:23.006Z,28.83
2023-04-09T02:56:05.023Z,28.67
2023-04-09T02:56:46.877Z,27.23
2023-04-09T02:57:29.206Z,27.85
2023-04-09T02:58:11.430Z,26.98
2023-04-09T02:58:54.375Z,26.95
2023-04-09T02:59:38.872Z,28.25
2023-04-09T03:00:20.902Z,29.17
2023-04-09T03:01:02.828Z,28.52
2023-04-09T03:01:44.679Z,27.92
2023-04-09T03:02:29.228Z,27.75
2023-04-09T03:03:11.574Z,26.80
2023-04-09T03:03:56.288Z,29.65
2023-04-09T03:04:38.987Z,29.17
2023-04-09T03:05:21.165Z,26.17
2023-04-09T03:06:03.357Z,26.90
2023-04-09T03:06:45.241Z,27.77
2023-04-09T03:07:27.065Z,28.77
2023-04-09T03:08:08.993Z,30.80
2023-04-09T03:08:51.230Z,28.73
2023-04-09T03:09:33.891Z,28.40
2023-04-09T03:10:15.857Z,27.25
2023-04-09T03:10:59.946Z,27.17
2023-04-09T03:11:44.044Z,27.50
2023-04-09T03:12:25.888Z,27.15
2023-04-09T03:13:08.461Z,28.02
2023-04-09T03:13:50.403Z,27.20
2023-04-09T03:14:33.749Z,27.63
2023-04-09T03:15:17.038Z,26.20
2023-04-09T03:15:58.945Z,26.40
2023-04-09T03:16:41.353Z,26.77
2023-04-09T03:17:25.849Z,27.98
2023-04-09T03:18:10.108Z,26.98
2023-04-09T03:18:52.046Z,28.08
2023-04-09T03:19:34.027Z,27.35
2023-04-09T03:20:16.034Z,26.80
2023-04-09T03:20:57.988Z,26.50
2023-04-09T03:21:39.875Z,26.23
2023-04-09T03:22:23.989Z,25.33
2023-04-09T03:23:06.057Z,26.42
2023-04-09T03:23:48.064Z,28.80
2023-04-09T03:24:31.504Z,28.08
2023-04-09T03:25:13.507Z,27.63
2023-04-09T03:26:05.922Z,27.27
2023-04-09T03:26:50.057Z,28.40
2023-04-09T03:27:33.192Z,27.50
2023-04-09T03:28:14.981Z,26.50
2023-04-09T03:28:59.320Z,28.20
2023-04-09T03:29:41.094Z,27.42
2023-04-09T03:30:23.055Z,28.73
2023-04-09T03:31:06.981Z,29.05
2023-04-09T03:31:49.170Z,28.75
2023-04-09T03:32:31.250Z,29.70
2023-04-09T03:33:13.087Z,27.48
2023-04-09T03:33:54.979Z,25.95
2023-04-09T03:34:38.995Z,28.95
2023-04-09T03:35:21.084Z,26.73
2023-04-09T03:36:02.965Z,28.20
2023-04-09T03:36:44.989Z,30.35
2023-04-09T03:37:29.091Z,29.35
2023-04-09T03:38:11.297Z,27.40
2023-04-09T03:38:53.478Z,26.92
2023-04-09T03:39:35.557Z,26.27
2023-04-09T03:40:17.488Z,26.52
2023-04-09T03:40:59.260Z,25.75
2023-04-09T03:41:41.156Z,26.03
2023-04-09T03:42:23.591Z,26.98
2023-04-09T03:43:05.712Z,28.73
2023-04-09T03:43:47.501Z,28.75
2023-04-09T03:44:29.607Z,26.17
2023-04-09T03:45:11.522Z,27.20
2023-04-09T03:45:53.354Z,28.13
2023-04-09T03:46:35.170Z,27.40
2023-04-09T03:47:19.437Z,26.13
2023-04-09T03:48:01.346Z,27.08
2023-04-09T03:48:44.656Z,28.25
2023-04-09T03:49:26.664Z,26.75
2023-04-09T03:50:09.240Z,26.17
2023-04-09T03:50:53.565Z,26.63
2023-04-09T03:51:35.346Z,26.85
2023-04-09T03:52:17.184Z,26.45
2023-04-09T03:52:59.215Z,27.38
2023-04-09T03:53:44.238Z,26.00
2023-04-09T03:54:29.888Z,28.00
2023-04-09T03:55:11.733Z,26.33
2023-04-09T03:55:53.704Z,27.30
2023-04-09T03:56:35.650Z,27.70
2023-04-09T03:57:17.432Z,26.95
2023-04-09T03:57:59.401Z,27.88
2023-04-09T03:58:41.234Z,29.10
2023-04-09T03:59:23.785Z,26.90
2023-04-09T04:00:06.491Z,28.15
2023-04-09T04:00:48.878Z,27.15
2023-04-09T04:01:30.691Z,29.00
2023-04-09T04:02:12.607Z,27.67
2023-04-09T04:02:54.986Z,27.60
2023-04-09T04:03:37.161Z,27.83
2023-04-09T04:04:21.227Z,26.10
2023-04-09T04:05:05.668Z,27.23
2023-04-09T04:05:47.479Z,30.80
2023-04-09T04:06:29.327Z,29.08
2023-04-09T04:07:11.098Z,31.00
2023-04-09T04:07:53.280Z,27.80
2023-04-09T04:08:35.161Z,26.55
2023-04-09T04:09:19.223Z,27.10
2023-04-09T04:10:01.393Z,28.30
2023-04-09T04:10:43.709Z,27.92
2023-04-09T04:11:25.587Z,27.40
2023-04-09T04:12:07.418Z,25.85
2023-04-09T04:12:49.363Z,26.63
2023-04-09T04:13:31.325Z,25.80
2023-04-09T04:14:15.192Z,26.00
2023-04-09T04:14:59.540Z,26.60
2023-04-09T04:15:44.908Z,29.55
2023-04-09T04:16:26.894Z,27.90
2023-04-09T04:17:09.220Z,27.00
2023-04-09T04:17:51.064Z,26.58
2023-04-09T04:18:35.565Z,27.02
2023-04-09T04:19:17.497Z,27.73
2023-04-09T04:19:59.289Z,26.38
2023-04-09T04:20:41.439Z,26.30
2023-04-09T04:21:23.373Z,27.83
2023-04-09T04:22:05.233Z,27.55
2023-04-09T04:22:47.042Z,26.58
2023-04-09T04:23:28.980Z,28.38
2023-04-09T04:24:11.273Z,27.27
2023-04-09T04:24:53.390Z,26.40
2023-04-09T04:25:37.537Z,27.92
2023-04-09T04:26:19.379Z,25.38
2023-04-09T04:27:01.230Z,26.42
2023-04-09T04:27:43.422Z,26.60
2023-04-09T04:28:25.408Z,27.23
2023-04-09T04:29:07.280Z,26.05
2023-04-09T04:29:51.134Z,25.63
2023-04-09T04:30:32.932Z,28.13
2023-04-09T04:31:15.104Z,27.77
2023-04-09T04:31:56.942Z,24.80
2023-04-09T04:32:38.943Z,26.63
2023-04-09T04:33:20.878Z,27.45
2023-04-09T04:34:02.689Z,25.90
2023-04-09T04:34:48.349Z,26.10
2023-04-09T04:35:32.620Z,31.05
2023-04-09T04:36:17.205Z,25.65
2023-04-09T04:37:01.326Z,29.55
2023-04-09T04:37:45.485Z,27.52
2023-04-09T04:38:27.300Z,26.58
2023-04-09T04:39:11.455Z,27.48
2023-04-09T04:39:53.454Z,27.95
2023-04-09T04:40:35.430Z,25.23
2023-04-09T04:41:19.528Z,23.88
2023-04-09T04:42:01.399Z,25.63
2023-04-09T04:42:43.521Z,26.63
2023-04-09T04:43:25.449Z,27.75
2023-04-09T04:44:09.561Z,28.42
2023-04-09T04:44:51.408Z,26.80
2023-04-09T04:45:33.451Z,25.58
2023-04-09T04:46:15.432Z,25.98
2023-04-09T04:46:57.414Z,27.00
2023-04-09T04:47:39.270Z,27.45
2023-04-09T04:48:21.769Z,28.33
2023-04-09T04:49:03.804Z,26.35
2023-04-09T04:49:45.690Z,24.70
2023-04-09T04:50:27.480Z,24.45
2023-04-09T04:51:09.439Z,27.48
2023-04-09T04:51:51.477Z,26.85
2023-04-09T04:52:33.421Z,25.85
2023-04-09T04:53:15.334Z,23.48
2023-04-09T04:53:57.167Z,25.05
2023-04-09T04:54:39.008Z,28.05
2023-04-09T04:55:20.823Z,25.70
2023-04-09T04:56:02.599Z,25.75
2023-04-09T04:56:44.569Z,26.05
2023-04-09T04:57:26.379Z,28.55
2023-04-09T04:58:10.305Z,27.85
2023-04-09T04:58:52.281Z,27.15
2023-04-09T04:59:36.857Z,25.65
2023-04-09T05:00:18.958Z,25.65
2023-04-09T05:01:00.988Z,24.48
2023-04-09T05:01:42.963Z,26.50
2023-04-09T05:02:27.946Z,25.02
2023-04-09T05:03:10.270Z,24.83
2023-04-09T05:03:52.308Z,28.45
2023-04-09T05:04:34.562Z,27.02
2023-04-09T05:05:16.627Z,26.08
2023-04-09T05:05:58.600Z,26.80
2023-04-09T05:06:40.412Z,28.50
2023-04-09T05:07:24.282Z,26.15
2023-04-09T05:08:06.921Z,25.02
2023-04-09T05:08:48.769Z,25.52
2023-04-09T05:09:30.709Z,25.98
2023-04-09T05:10:12.527Z,26.67
2023-04-09T05:10:56.293Z,27.35
2023-04-09T05:11:40.992Z,26.25
2023-04-09T05:12:22.828Z,27.20
2023-04-09T05:13:04.627Z,27.65
2023-04-09T05:13:46.515Z,27.85
2023-04-09T05:14:28.653Z,27.55
2023-04-09T05:15:10.556Z,26.67
2023-04-09T05:15:54.732Z,26.73
2023-04-09T05:16:36.779Z,26.90
2023-04-09T05:17:18.708Z,25.45
2023-04-09T05:18:00.670Z,26.50
2023-04-09T05:18:42.489Z,27.48
2023-04-09T05:19:24.578Z,27.58
2023-04-09T05:20:07.132Z,26.92
2023-04-09T05:20:49.077Z,26.85
2023-04-09T05:21:31.924Z,25.15
2023-04-09T05:22:13.956Z,25.73
2023-04-09T05:22:55.840Z,27.02
2023-04-09T05:23:37.825Z,27.27
2023-04-09T05:24:19.650Z,26.70
2023-04-09T05:25:01.644Z,26.75
2023-04-09T05:25:43.702Z,26.02
2023-04-09T05:26:25.463Z,27.25
2023-04-09T05:27:09.539Z,24.00
2023-04-09T05:27:51.566Z,25.80
2023-04-09T05:28:33.575Z,26.63
2023-04-09T05:29:17.294Z,25.08
2023-04-09T05:30:00.742Z,26.35
2023-04-09T05:30:49.655Z,26.52
2023-04-09T05:31:31.765Z,24.75
2023-04-09T05:32:13.580Z,25.92
2023-04-09T05:32:55.541Z,25.65
2023-04-09T05:33:38.609Z,23.52
2023-04-09T05:34:20.620Z,25.98
2023-04-09T05:35:04.752Z,26.05
2023-04-09T05:35:46.722Z,26.30
2023-04-09T05:36:28.652Z,25.30
2023-04-09T05:37:10.824Z,24.63
2023-04-09T05:37:52.701Z,24.65
2023-04-09T05:38:35.011Z,25.20
2023-04-09T05:39:17.080Z,24.48
2023-04-09T05:39:59.142Z,24.05
2023-04-09T05:40:42.352Z,23.90
2023-04-09T05:41:24.197Z,24.40
2023-04-09T05:42:06.159Z,23.95
2023-04-09T05:42:48.153Z,27.23
2023-04-09T05:43:29.997Z,29.13
2023-04-09T05:44:12.234Z,26.63
2023-04-09T05:44:54.341Z,24.10
2023-04-09T05:45:36.130Z,24.10
2023-04-09T05:46:18.188Z,24.42
2023-04-09T05:47:00.171Z,26.40
2023-04-09T05:47:42.227Z,23.20
2023-04-09T05:48:24.287Z,23.63
2023-04-09T05:49:06.288Z,23.70
2023-04-09T05:49:48.426Z,25.00
2023-04-09T05:50:30.410Z,26.02
2023-04-09T05:51:12.796Z,24.55
2023-04-09T05:51:54.680Z,24.55
2023-04-09T05:52:36.791Z,23.95
2023-04-09T05:53:19.833Z,22.80
2023-04-09T05:54:02.822Z,24.60
2023-04-09T05:54:44.661Z,25.55
2023-04-09T05:55:28.824Z,25.15
2023-04-09T05:56:17.429Z,23.10
2023-04-09T05:56:59.338Z,22.40
2023-04-09T05:57:41.808Z,23.42
2023-04-09T05:58:24.106Z,23.73
2023-04-09T05:59:05.883Z,23.13
2023-04-09T05:59:47.849Z,25.95
2023-04-09T06:00:29.791Z,27.05
2023-04-09T06:01:11.892Z,23.90
2023-04-09T06:01:53.910Z,27.67
2023-04-09T06:02:35.845Z,24.00
2023-04-09T06:03:18.019Z,22.88
2023-04-09T06:04:00.259Z,24.48
2023-04-09T06:04:42.434Z,23.02
2023-04-09T06:05:24.412Z,22.48
2023-04-09T06:06:09.136Z,24.20
2023-04-09T06:06:54.431Z,23.38
2023-04-09T06:07:36.206Z,21.42
2023-04-09T06:08:18.030Z,24.35
2023-04-09T06:08:59.852Z,26.38
2023-04-09T06:09:44.120Z,22.67
2023-04-09T06:10:25.898Z,21.20
2023-04-09T06:11:13.189Z,22.60
2023-04-09T06:11:54.951Z,26.27
2023-04-09T06:12:36.928Z,23.42
2023-04-09T06:13:18.996Z,22.17
2023-04-09T06:14:00.833Z,22.58
2023-04-09T06:14:42.962Z,24.30
2023-04-09T06:15:24.767Z,23.08
2023-04-09T06:16:10.453Z,23.98
2023-04-09T06:16:52.401Z,23.02
2023-04-09T06:17:34.350Z,21.83
2023-04-09T06:18:16.281Z,21.77
2023-04-09T06:18:58.326Z,22.55
2023-04-09T06:19:40.369Z,22.88
2023-04-09T06:20:22.370Z,22.45
2023-04-09T06:21:06.059Z,22.42
2023-04-09T06:21:47.972Z,22.67
2023-04-09T06:22:29.787Z,22.02
2023-04-09T06:23:14.294Z,22.00
2023-04-09T06:23:56.109Z,20.40
2023-04-09T06:24:38.070Z,20.30
2023-04-09T06:25:20.069Z,19.83
2023-04-09T06:26:02.464Z,20.77
2023-04-09T06:26:44.450Z,23.73
2023-04-09T06:27:29.346Z,22.90
2023-04-09T06:28:11.513Z,21.45
2023-04-09T06:28:54.059Z,21.40
2023-04-09T06:29:37.986Z,22.50
2023-04-09T06:30:19.978Z,19.60
2023-04-09T06:31:04.274Z,19.88
2023-04-09T06:31:46.562Z,21.02
2023-04-09T06:32:28.574Z,20.58
2023-04-09T06:33:10.656Z,21.05
2023-04-09T06:33:52.906Z,20.52
2023-04-09T06:34:34.894Z,22.10
2023-04-09T06:35:19.106Z,20.55
2023-04-09T06:36:01.431Z,20.27
2023-04-09T06:36:44.549Z,20.85
2023-04-09T06:37:26.327Z,21.67
2023-04-09T06:38:10.112Z,21.80
2023-04-09T06:38:52.018Z,23.25
2023-04-09T06:39:33.895Z,22.85
2023-04-09T06:40:15.731Z,22.13
2023-04-09T06:41:00.564Z,19.25
2023-04-09T06:41:42.507Z,21.75
2023-04-09T06:42:24.517Z,21.10
2023-04-09T06:43:06.979Z,20.90
2023-04-09T06:43:49.174Z,22.58
2023-04-09T06:44:34.355Z,25.55
2023-04-09T06:45:16.213Z,22.63
2023-04-09T06:45:58.387Z,22.38
2023-04-09T06:46:40.627Z,22.02
2023-04-09T06:47:22.593Z,20.17
2023-04-09T06:48:05.023Z,20.77
2023-04-09T06:48:47.172Z,20.63
2023-04-09T06:49:28.966Z,20.00
2023-04-09T06:50:10.783Z,17.65
2023-04-09T06:50:52.648Z,18.67
2023-04-09T06:51:34.654Z,19.20
2023-04-09T06:52:16.713Z,20.15
2023-04-09T06:52:58.630Z,20.15
2023-04-09T06:53:40.656Z,18.70
2023-04-09T06:54:22.643Z,17.70
2023-04-09T06:55:05.055Z,20.17
2023-04-09T06:55:47.063Z,19.77
2023-04-09T06:56:29.080Z,19.00
2023-04-09T06:57:10.878Z,18.77
2023-04-09T06:57:52.697Z,18.23
2023-04-09T06:58:34.735Z,18.50
2023-04-09T06:59:18.931Z,19.33
2023-04-09T07:00:00.693Z,19.98
2023-04-09T07:00:42.678Z,19.50
2023-04-09T07:01:26.457Z,17.55
2023-04-09T07:02:09.209Z,16.35
2023-04-09T07:02:51.797Z,15.93
2023-04-09T07:03:33.975Z,18.02
2023-04-09T07:04:18.121Z,16.95
2023-04-09T07:04:59.964Z,16.25
2023-04-09T07:05:44.423Z,15.38
2023-04-09T07:06:26.445Z,15.95
2023-04-09T07:07:08.223Z,17.48
2023-04-09T07:07:50.057Z,16.70
2023-04-09T07:08:32.153Z,16.30
2023-04-09T07:09:14.222Z,13.98
2023-04-09T07:09:56.365Z,14.77
2023-04-09T07:10:38.343Z,15.13
2023-04-09T07:11:20.449Z,18.35
2023-04-09T07:12:02.223Z,17.05
2023-04-09T07:12:44.309Z,15.63
2023-04-09T07:13:26.181Z,15.10
2023-04-09T07:14:10.289Z,15.95
2023-04-09T07:14:52.231Z,15.23
2023-04-09T07:15:34.326Z,16.48
2023-04-09T07:16:16.205Z,16.23
2023-04-09T07:16:58.301Z,15.23
2023-04-09T07:17:40.306Z,14.30
2023-04-09T07:18:24.633Z,14.20
2023-04-09T07:19:07.555Z,14.18
2023-04-09T07:19:49.393Z,13.70
2023-04-09T07:20:31.214Z,13.30
2023-04-09T07:21:15.078Z,12.88
2023-04-09T07:21:56.888Z,14.65
2023-04-09T07:22:39.736Z,14.90
2023-04-09T07:23:22.478Z,14.75
2023-04-09T07:24:04.359Z,15.23
2023-04-09T07:24:47.227Z,14.57
2023-04-09T07:25:29.152Z,14.68
2023-04-09T07:26:11.405Z,14.40
2023-04-09T07:26:53.405Z,16.27
2023-04-09T07:27:35.903Z,15.55
2023-04-09T07:28:17.998Z,13.90
2023-04-09T07:29:00.015Z,14.57
2023-04-09T07:29:44.699Z,13.73
2023-04-09T07:30:26.619Z,14.32
2023-04-09T07:31:09.761Z,14.57
2023-04-09T07:31:51.627Z,13.80
2023-04-09T07:32:33.517Z,14.23
2023-04-09T07:33:15.422Z,14.80
2023-04-09T07:33:57.395Z,14.90
2023-04-09T07:34:39.416Z,14.30
2023-04-09T07:35:21.819Z,13.70
2023-04-09T07:36:03.968Z,14.25
2023-04-09T07:36:45.766Z,14.10
2023-04-09T07:37:27.834Z,12.95
2023-04-09T07:38:09.822Z,14.65
2023-04-09T07:38:51.819Z,14.50
2023-04-09T07:39:33.918Z,15.80
2023-04-09T07:40:18.693Z,15.57
2023-04-09T07:41:01.295Z,14.93
2023-04-09T07:41:43.378Z,14.25
2023-04-09T07:42:25.783Z,13.70
2023-04-09T07:43:07.641Z,12.65
2023-04-09T07:43:49.424Z,13.77
2023-04-09T07:44:36.399Z,13.27
2023-04-09T07:45:18.473Z,12.57
2023-04-09T07:46:00.487Z,13.27
2023-04-09T07:46:44.071Z,12.60
2023-04-09T07:47:26.979Z,11.98
2023-04-09T07:48:09.387Z,12.60
2023-04-09T07:48:53.752Z,13.00
2023-04-09T07:49:38.719Z,14.15
2023-04-09T07:50:20.557Z,14.20
2023-04-09T07:51:02.511Z,12.60
2023-04-09T07:51:44.323Z,11.52
2023-04-09T07:52:26.160Z,13.07
2023-04-09T07:53:08.052Z,12.75
2023-04-09T07:53:50.297Z,11.63
2023-04-09T07:54:34.789Z,12.80
2023-04-09T07:55:17.437Z,13.48
2023-04-09T07:56:00.369Z,12.25
2023-04-09T07:56:42.211Z,12.25
2023-04-09T07:57:24.197Z,11.77
2023-04-09T07:58:06.457Z,12.50
2023-04-09T07:58:49.323Z,12.93
2023-04-09T07:59:31.812Z,12.18
2023-04-09T08:00:16.633Z,11.30
2023-04-09T08:00:58.661Z,13.27
2023-04-09T08:01:40.727Z,13.70
2023-04-09T08:02:24.016Z,11.80
2023-04-09T08:03:06.478Z,10.88
2023-04-09T08:03:49.219Z,11.65
2023-04-09T08:04:32.637Z,13.50
2023-04-09T08:05:14.734Z,12.63
2023-04-09T08:05:56.546Z,13.85
2023-04-09T08:06:38.638Z,13.75
2023-04-09T08:07:20.743Z,11.70
2023-04-09T08:08:02.642Z,11.98
2023-04-09T08:08:44.779Z,13.57
2023-04-09T08:09:26.581Z,13.07
2023-04-09T08:10:13.950Z,13.00
2023-04-09T08:10:55.781Z,11.07
2023-04-09T08:11:37.616Z,12.10
2023-04-09T08:12:19.537Z,11.75
2023-04-09T08:13:03.647Z,11.00
2023-04-09T08:13:45.532Z,13.43
2023-04-09T08:14:29.421Z,13.53
2023-04-09T08:15:11.926Z,11.38
2023-04-09T08:15:53.725Z,9.90
2023-04-09T08:16:35.521Z,10.25
2023-04-09T08:17:19.652Z,11.43
2023-04-09T08:18:05.695Z,11.77
2023-04-09T08:18:47.949Z,12.55
2023-04-09T08:19:29.768Z,12.70
2023-04-09T08:20:12.788Z,12.15
2023-04-09T08:20:54.737Z,11.07
2023-04-09T08:21:43.164Z,11.23
2023-04-09T08:22:25.262Z,11.65
2023-04-09T08:23:07.020Z,12.35
2023-04-09T08:23:48.858Z,11.35
2023-04-09T08:24:31.280Z,10.50
2023-04-09T08:25:13.194Z,11.70
2023-04-09T08:25:55.016Z,11.90
2023-04-09T08:26:37.093Z,10.60
2023-04-09T08:27:19.720Z,13.07
2023-04-09T08:28:03.912Z,12.27
2023-04-09T08:28:45.807Z,11.40
2023-04-09T08:29:27.870Z,11.70
2023-04-09T08:30:10.385Z,10.02
2023-04-09T08:30:52.679Z,9.60
2023-04-09T08:31:35.005Z,11.35
2023-04-09T08:32:16.961Z,10.52
2023-04-09T08:32:58.804Z,10.63
2023-04-09T08:33:41.180Z,11.55
2023-04-09T08:34:23.255Z,10.60
2023-04-09T08:35:06.301Z,10.00
2023-04-09T08:35:48.392Z,11.05
2023-04-09T08:36:30.248Z,12.07
2023-04-09T08:37:12.093Z,12.13
2023-04-09T08:37:54.908Z,10.43
2023-04-09T08:38:37.040Z,10.10
2023-04-09T08:39:20.162Z,10.60
2023-04-09T08:40:02.151Z,9.77
2023-04-09T08:40:44.204Z,10.25
2023-04-09T08:41:29.226Z,10.60
2023-04-09T08:42:12.744Z,10.85
2023-04-09T08:42:58.711Z,10.38
2023-04-09T08:43:53.105Z,10.00
2023-04-09T08:44:39.227Z,9.55
2023-04-09T08:45:21.195Z,9.85
2023-04-09T08:46:03.420Z,11.02
2023-04-09T08:46:45.387Z,10.50
2023-04-09T08:47:27.921Z,10.32
2023-04-09T08:48:13.022Z,11.00
2023-04-09T08:48:55.144Z,11.23
2023-04-09T08:49:39.657Z,10.90
2023-04-09T08:50:22.680Z,11.38
2023-04-09T08:51:05.714Z,10.48
2023-04-09T08:51:49.142Z,9.13
2023-04-09T08:52:34.913Z,9.30
2023-04-09T08:53:18.971Z,7.97
2023-04-09T08:54:04.380Z,9.20
2023-04-09T08:54:46.863Z,8.25
2023-04-09T08:55:28.822Z,9.10
2023-04-09T08:56:10.882Z,9.98
2023-04-09T08:56:52.748Z,10.20
2023-04-09T08:57:38.951Z,8.50
2023-04-09T08:58:20.792Z,9.00
2023-04-09T08:59:02.730Z,10.00
2023-04-09T08:59:44.536Z,10.68
2023-04-09T09:00:27.191Z,10.80
2023-04-09T09:01:18.936Z,11.10
2023-04-09T09:02:10.741Z,10.38
2023-04-09T09:03:04.326Z,10.45
2023-04-09T09:03:56.834Z,8.25
2023-04-09T09:04:49.404Z,9.63
2023-04-09T09:05:51.564Z,9.45
2023-04-09T09:06:36.144Z,8.13
2023-04-09T09:07:18.048Z,8.75
2023-04-09T09:08:03.711Z,7.78
2023-04-09T09:08:48.796Z,10.43
2023-04-09T09:09:30.973Z,9.10
2023-04-09T09:10:12.956Z,7.80
2023-04-09T09:10:54.751Z,8.40
2023-04-09T09:11:38.736Z,8.68
2023-04-09T09:12:34.283Z,8.80
2023-04-09T09:13:26.429Z,8.05
2023-04-09T09:14:10.272Z,9.15
2023-04-09T09:14:52.281Z,9.75
2023-04-09T09:15:34.058Z,8.55
2023-04-09T09:16:16.514Z,8.57
2023-04-09T09:16:58.671Z,8.40
2023-04-09T09:17:54.959Z,8.90
2023-04-09T09:18:44.099Z,10.18
2023-04-09T09:19:26.116Z,8.20